• Join FlightAware (Why Join?)
  • Login
  • US Flag 
06:31AM EST


 

Airport Tracker/Info


-or-


 

Live Flight TrackerFlight Track Log ✈ FDX1347 ✈ 03-May-2013 ✈ KALB - KMEM

Flight Track Log - Related Links

Times and Time Zones

All times are in EDT time to prevent confusion due to time zone crossing. See the FDX1347 flight status page for this flight to view local times or setup timezone preferences in your user account.

Time Position Orientation Groundspeed Altitude Reporting Facility
EDT Latitude Longitude Course Direction KTS MPH feet Rate Location/Type
09:43PM 42.7278 -73.8108 227° Southwest 148 170 1,700  Level Boston Center
09:43PM 42.6936 -73.8608 227° Southwest 258 297 4,400 3,420 Climbing Boston Center
09:44PM 42.7092 -73.9631 282° West 288 331 8,400 2,880 Climbing Boston Center
09:46PM 42.7200 -74.0764 277° West 301 346 10,800 2,520 Climbing Boston Center
09:47PM 42.6742 -74.2136 246° West 366 421 14,000 3,120 Climbing Boston Center
09:48PM 42.6114 -74.3556 239° Southwest 396 456 17,100 2,280 Climbing Boston Center
09:53PM 42.2270 -75.2170 239° Southwest 490 564 29,600 2,160 Climbing FlightAware
09:54PM 42.1800 -75.3230 239° Southwest 485 558 31,200 2,220 Climbing FlightAware
09:55PM 42.1280 -75.4360 238° Southwest 478 550 32,800 1,380 Climbing FlightAware
09:55PM 42.0890 -75.5210 238° Southwest 477 549 33,100 1,800 Climbing FlightAware
09:56PM 42.0230 -75.6680 239° Southwest 470 541 35,700 2,220 Climbing FlightAware
09:57PM 41.9720 -75.7760 238° Southwest 465 535 37,000 1,680 Climbing FlightAware
09:58PM 41.9248 -75.8804 239° Southwest 453 521 38,000 840 Climbing FlightAware ADS-B
09:58PM 41.8911 -75.9539 238° Southwest 449 517 38,000  Level FlightAware ADS-B
09:59PM 41.8551 -76.0299 238° Southwest 452 520 38,000  Level FlightAware ADS-B
09:59PM 41.8211 -76.1039 238° Southwest 455 524 38,000  Level FlightAware ADS-B
10:00PM 41.7872 -76.1760 238° Southwest 460 529 38,000  Level FlightAware ADS-B
10:00PM 41.7503 -76.2557 238° Southwest 462 532 38,000  Level FlightAware ADS-B
10:01PM 41.7155 -76.3313 238° Southwest 465 535 38,000  Level FlightAware ADS-B
10:01PM 41.6791 -76.4070 237° Southwest 467 537 38,000  Level FlightAware ADS-B
10:02PM 41.6431 -76.4853 238° Southwest 467 537 38,000  Level FlightAware ADS-B
10:02PM 41.6076 -76.5610 238° Southwest 468 539 38,000  Level FlightAware ADS-B
10:03PM 41.5728 -76.6341 238° Southwest 467 537 38,000  Level FlightAware ADS-B
10:03PM 41.5358 -76.7120 238° Southwest 466 536 38,000  Level FlightAware ADS-B
10:04PM 41.5013 -76.7844 238° Southwest 463 533 38,000  Level FlightAware ADS-B
10:05PM 41.4635 -76.8637 238° Southwest 462 532 38,000  Level FlightAware ADS-B
10:05PM 41.4269 -76.9403 238° Southwest 459 528 38,000  Level FlightAware ADS-B
10:06PM 41.3927 -77.0115 237° Southwest 457 526 38,000  Level FlightAware ADS-B
10:06PM 41.3586 -77.0826 237° Southwest 456 525 38,000  Level FlightAware ADS-B
10:07PM 41.3241 -77.1556 238° Southwest 454 522 38,000  Level FlightAware ADS-B
10:07PM 41.2866 -77.2331 237° Southwest 453 521 38,000  Level FlightAware ADS-B
10:08PM 41.2491 -77.3102 237° Southwest 452 520 38,000  Level FlightAware ADS-B
10:08PM 41.2087 -77.3942 237° Southwest 452 520 38,000  Level FlightAware ADS-B
10:09PM 41.1690 -77.4780 238° Southwest 451 519 38,000  Level FlightAware
10:09PM 41.1539 -77.5082 236° Southwest 452 520 38,000  Level FlightAware ADS-B
10:10PM 41.1172 -77.5828 237° Southwest 452 520 38,000  Level FlightAware ADS-B
10:10PM 41.0726 -77.6736 237° Southwest 453 521 38,000  Level FlightAware ADS-B
10:11PM 41.0153 -77.7898 237° Southwest 453 521 38,000  Level FlightAware ADS-B
10:12PM 40.9800 -77.8640 238° Southwest 451 519 38,000  Level FlightAware
10:12PM 40.9290 -77.9658 236° Southwest 452 520 38,000  Level FlightAware ADS-B
10:13PM 40.8850 -78.0560 237° Southwest 451 519 38,000  Level FlightAware
10:14PM 40.8320 -78.1580 236° Southwest 449 517 38,000  Level FlightAware
10:15PM 40.7800 -78.2600 236° Southwest 447 514 38,000  Level FlightAware
10:15PM 40.7400 -78.3420 237° Southwest 444 511 38,000  Level FlightAware
10:16PM 40.6758 -78.4676 236° Southwest 443 510 38,000  Level FlightAware ADS-B
10:17PM 40.6260 -78.5650 236° Southwest 438 504 38,000  Level FlightAware
10:18PM 40.5750 -78.6640 236° Southwest 436 502 38,000  Level FlightAware
10:18PM 40.5320 -78.7480 236° Southwest 434 499 38,000  Level FlightAware
10:19PM 40.4800 -78.8480 236° Southwest 432 497 38,000  Level FlightAware
10:20PM 40.4350 -78.9370 236° Southwest 431 496 38,000  Level FlightAware
10:20PM 40.3900 -79.0230 236° Southwest 431 496 38,000  Level FlightAware
10:22PM 40.3130 -79.1700 236° Southwest 432 497 38,000  Level FlightAware
10:23PM 40.2330 -79.3240 236° Southwest 433 498 38,000  Level FlightAware
10:25PM 40.0840 -79.6060 235° Southwest 437 503 38,000  Level FlightAware
10:26PM 40.0360 -79.6980 236° Southwest 439 505 38,000  Level FlightAware
10:28PM 39.8670 -80.0120 235° Southwest 441 507 38,000  Level FlightAware
10:29PM 39.7880 -80.1610 235° Southwest 437 503 38,000  Level FlightAware
10:30PM 39.7180 -80.2900 235° Southwest 435 501 38,000  Level FlightAware
10:31PM 39.6510 -80.4120 235° Southwest 435 501 38,000  Level FlightAware
10:32PM 39.6010 -80.5050 235° Southwest 435 501 38,000  Level FlightAware
10:33PM 39.5440 -80.6100 235° Southwest 435 501 38,000  Level FlightAware
10:33PM 39.4990 -80.6930 235° Southwest 436 502 38,000  Level FlightAware
10:34PM 39.4510 -80.7800 234° Southwest 436 502 38,000  Level FlightAware
10:35PM 39.4000 -80.8740 235° Southwest 436 502 38,000  Level FlightAware
10:35PM 39.3520 -80.9610 235° Southwest 436 502 38,000  Level FlightAware
10:36PM 39.2990 -81.0560 234° Southwest 437 503 38,000  Level FlightAware
10:37PM 39.2520 -81.1410 234° Southwest 438 504 38,000  Level FlightAware
10:37PM 39.2000 -81.2350 234° Southwest 438 504 38,000  Level FlightAware
10:38PM 39.1510 -81.3220 234° Southwest 440 506 38,000  Level FlightAware
10:39PM 39.1040 -81.4070 235° Southwest 440 506 38,000  Level FlightAware
10:40PM 39.0510 -81.5010 234° Southwest 441 507 38,000  Level FlightAware
10:40PM 39.0030 -81.5860 234° Southwest 441 507 38,000  Level FlightAware
10:41PM 38.9470 -81.6860 234° Southwest 439 505 38,000  Level FlightAware
10:42PM 38.9000 -81.7700 234° Southwest 438 504 38,000  Level FlightAware
10:42PM 38.8520 -81.8540 234° Southwest 436 502 38,000  Level FlightAware
10:43PM 38.8000 -81.9450 234° Southwest 434 499 38,000  Level FlightAware
10:44PM 38.7540 -82.0260 234° Southwest 433 498 38,000  Level FlightAware
10:44PM 38.7010 -82.1260 236° Southwest 433 498 38,000  Level FlightAware
10:45PM 38.6580 -82.2090 236° Southwest 432 497 38,000  Level FlightAware
10:46PM 38.6130 -82.2960 237° Southwest 431 496 38,000  Level FlightAware
10:47PM 38.5660 -82.3830 235° Southwest 431 496 38,000  Level FlightAware
10:47PM 38.5190 -82.4710 236° Southwest 432 497 38,000  Level FlightAware
10:48PM 38.4730 -82.5580 236° Southwest 433 498 38,000  Level FlightAware
10:49PM 38.4210 -82.6550 236° Southwest 434 499 38,000  Level FlightAware
10:50PM 38.3530 -82.7840 236° Southwest 439 505 38,000  Level FlightAware
10:50PM 38.3010 -82.8790 235° Southwest 439 505 38,000  Level FlightAware
10:51PM 38.2463 -82.9822 236° Southwest 440 506 38,000  Level FlightAware ADS-B
10:52PM 38.2098 -83.0506 236° Southwest 441 507 38,000  Level FlightAware ADS-B
10:52PM 38.1747 -83.1147 235° Southwest 441 507 38,000  Level FlightAware ADS-B
10:54PM 38.0632 -83.3200 235° Southwest 441 507 38,000  Level FlightAware ADS-B
10:55PM 37.9783 -83.4760 235° Southwest 444 511 38,000  Level FlightAware ADS-B
10:56PM 37.9411 -83.5443 235° Southwest 444 511 38,000  Level FlightAware ADS-B
10:56PM 37.9001 -83.6190 235° Southwest 444 511 38,000  Level FlightAware ADS-B
10:57PM 37.8650 -83.6820 235° Southwest 442 509 38,000  Level FlightAware
10:58PM 37.8040 -83.7930 235° Southwest 443 510 38,000  Level FlightAware
10:58PM 37.7700 -83.8550 235° Southwest 442 509 38,000  Level FlightAware
10:59PM 37.7150 -83.9530 235° Southwest 442 509 38,000  Level FlightAware
11:00PM 37.6580 -84.0560 235° Southwest 441 507 38,000  Level FlightAware
11:00PM 37.6080 -84.1460 235° Southwest 440 506 38,000  Level FlightAware
11:01PM 37.5614 -84.2301 235° Southwest 440 506 38,000  Level FlightAware ADS-B
11:02PM 37.5223 -84.2990 234° Southwest 439 505 38,000  Level FlightAware ADS-B
11:02PM 37.4584 -84.4135 235° Southwest 438 504 38,000  Level FlightAware ADS-B
11:03PM 37.4210 -84.4800 235° Southwest 437 503 38,000  Level FlightAware ADS-B
11:03PM 37.3848 -84.5442 235° Southwest 436 502 38,000  Level FlightAware ADS-B
11:04PM 37.3488 -84.6082 235° Southwest 435 501 38,000  Level FlightAware ADS-B
11:04PM 37.3137 -84.6698 234° Southwest 433 498 38,000  Level FlightAware ADS-B
11:05PM 37.2788 -84.7310 234° Southwest 430 495 38,000  Level FlightAware ADS-B
11:05PM 37.2440 -84.7918 234° Southwest 429 494 38,000  Level FlightAware ADS-B
11:06PM 37.2089 -84.8544 235° Southwest 427 491 38,000  Level FlightAware ADS-B
11:07PM 37.1734 -84.9168 234° Southwest 426 490 38,000  Level FlightAware ADS-B
11:07PM 37.1387 -84.9769 234° Southwest 425 489 38,000  Level FlightAware ADS-B
11:08PM 37.1043 -85.0369 234° Southwest 424 488 38,000  Level FlightAware ADS-B
11:08PM 37.0689 -85.0986 234° Southwest 423 487 38,000  Level FlightAware ADS-B
11:09PM 37.0343 -85.1581 234° Southwest 422 486 38,000  Level FlightAware ADS-B
11:09PM 36.9999 -85.2175 234° Southwest 421 484 38,000  Level FlightAware ADS-B
11:10PM 36.9650 -85.2787 234° Southwest 421 484 38,000  Level FlightAware ADS-B
11:10PM 36.9262 -85.3460 234° Southwest 422 486 38,000  Level FlightAware ADS-B
11:11PM 36.8914 -85.4072 235° Southwest 423 487 38,000  Level FlightAware ADS-B
11:11PM 36.8566 -85.4666 234° Southwest 423 487 38,000  Level FlightAware ADS-B
11:12PM 36.8218 -85.5262 234° Southwest 425 489 38,000  Level FlightAware ADS-B
11:12PM 36.7860 -85.5877 234° Southwest 426 490 38,000  Level FlightAware ADS-B
11:13PM 36.7509 -85.6474 234° Southwest 426 490 38,000  Level FlightAware ADS-B
11:13PM 36.7157 -85.7090 235° Southwest 427 491 38,000  Level FlightAware ADS-B
11:14PM 36.6803 -85.7688 234° Southwest 427 491 38,000  Level FlightAware ADS-B
11:15PM 36.6040 -85.9000 234° Southwest 427 491 38,000  Level FlightAware
11:15PM 36.5570 -85.9790 233° Southwest 428 493 38,000  Level FlightAware
11:16PM 36.5465 -85.9969 234° Southwest 429 494 38,000  Level FlightAware ADS-B
11:16PM 36.5011 -86.0724 233° Southwest 429 494 38,000  Level FlightAware ADS-B
11:17PM 36.4650 -86.1341 234° Southwest 430 495 38,000  Level FlightAware ADS-B
11:17PM 36.4292 -86.1939 233° Southwest 431 496 38,000  Level FlightAware ADS-B
11:18PM 36.3935 -86.2538 233° Southwest 432 497 38,000  Level FlightAware ADS-B
11:18PM 36.3574 -86.3157 234° Southwest 433 498 38,000  Level FlightAware ADS-B
11:19PM 36.3208 -86.3777 234° Southwest 433 498 38,000  Level FlightAware ADS-B
11:19PM 36.2832 -86.4397 233° Southwest 436 502 38,000  Level FlightAware ADS-B
11:20PM 36.2447 -86.5040 233° Southwest 436 502 38,000  Level FlightAware ADS-B
11:20PM 36.2071 -86.5664 233° Southwest 438 504 38,000  Level FlightAware ADS-B
11:21PM 36.1650 -86.6370 234° Southwest 440 506 38,000  Level FlightAware ADS-B
11:22PM 36.1160 -86.7480 241° Southwest 449 517 38,000  Level FlightAware
11:22PM 36.1001 -86.7963 248° West 441 507 38,000  Level FlightAware ADS-B
11:22PM 36.0913 -86.8248 249° West 451 519 38,000  Level FlightAware ADS-B
11:23PM 36.0621 -86.9186 249° West 450 518 38,000 -180 Level FlightAware ADS-B
11:23PM 36.0375 -86.9972 249° West 446 513 37,800 -900 Descending FlightAware ADS-B
11:24PM 36.0055 -87.0974 248° West 445 512 36,900 -960 Descending FlightAware ADS-B
11:25PM 35.9560 -87.2520 248° West 446 513 36,100 -900 Descending FlightAware
11:26PM 35.9250 -87.3470 248° West 448 516 35,300 -780 Descending FlightAware
11:27PM 35.8900 -87.4540 248° West 452 520 35,000 -240 Descending FlightAware
11:27PM 35.8590 -87.5500 248° West 448 516 35,000  Level FlightAware
11:28PM 35.8250 -87.6560 248° West 450 518 35,000  Level FlightAware
11:29PM 35.7940 -87.7490 248° West 453 521 35,000  Level FlightAware
11:30PM 35.7520 -87.8770 248° West 452 520 35,000  Level FlightAware
11:30PM 35.7250 -87.9580 248° West 452 520 35,000  Level FlightAware
11:31PM 35.6980 -88.0390 248° West 452 520 35,000 -3,000 Level FlightAware
11:32PM 35.6440 -88.1990 247° West 443 510 30,000 -3,000 Descending FlightAware
11:33PM 35.6170 -88.2780 247° West 443 510 30,000  Level FlightAware
11:33PM 35.5900 -88.3570 247° West 443 510 30,000  Level FlightAware
11:34PM 35.5620 -88.4360 246° West 443 510 30,000  Level FlightAware
11:35PM 35.5280 -88.5340 247° West 443 510 30,000  Level FlightAware
11:35PM 35.5080 -88.5930 247° West 443 510 30,000 -14,040 Level FlightAware
11:36PM 35.4119 -88.5892 247° West 371 427 19,500 -9,780 Descending Memphis Center
11:37PM 35.3547 -88.6692 229° Southwest 355 409 17,800 -1,800 Descending Memphis Center
11:38PM 35.2889 -88.7469 224° Southwest 342 394 16,000 -1,860 Descending Memphis Center
11:39PM 35.2253 -88.8269 226° Southwest 332 382 14,100 -1,980 Descending Memphis Center
11:40PM 35.1636 -88.9042 226° Southwest 321 369 12,100 -1,800 Descending Memphis Center
11:41PM 35.1061 -88.9764 226° Southwest 311 358 10,500 -1,020 Descending Memphis Center
11:42PM 35.0506 -89.0456 226° Southwest 286 329 10,100 -780 Descending Memphis Center
11:43PM 35.0303 -89.1247 253° West 238 274 9,000 -1,080 Descending Memphis Center
11:44PM 35.0333 -89.2133 272° West 249 287 8,000 -1,200 Descending Memphis Center
11:45PM 35.0361 -89.2994 272° West 255 293 6,600 -1,200 Descending Memphis Center
11:46PM 35.0411 -89.3883 274° West 255 293 5,600 -1,020 Descending Memphis Center
11:47PM 35.0439 -89.4719 272° West 255 293 4,600 -840 Descending Memphis Center
11:48PM 35.0486 -89.5506 274° West 245 282 4,000 -300 Descending Memphis Center
11:49PM 35.0489 -89.6292 270° West 238 274 4,000  Level Memphis Center
11:50PM 35.0514 -89.7025 272° West 228 262 4,000 -240 Level Memphis Center
11:51PM 35.0558 -89.7608 275° West 199 229 3,600 -660 Descending Memphis Center
11:52PM 35.0542 -89.8167 268° West 171 197 2,700 -900 Descending Memphis Center
11:53PM 35.0586 -89.8725 276° West 171 197 1,800 -900 Descending Memphis Center
11:53PM 35.0500 -89.9000 249° West 158 182 1,400 -720 Descending KMEM
11:54PM 35.0500 -89.9333 270° West 102 117 700 -720 Descending KMEM
11:56PM 35.0333 -89.9667 270° West  Level FlightAware Approximate
12:03AM 35.0424 -89.9767 270° West  Level Estimated